Time;durP1;ratioP1;P1;durP2;ratioP2;P2;SDS_P1;SDS_P2;PMS_P1;PMS_P2;Temp;Humidity;BMP_temperature;BMP_pressure;BME280_temperature;BME280_humidity;BME280_pressure;Samples;Min_cycle;Max_cycle;Signal;HPM_P1;HPM_P2
2022/10/31 00:02:17;;;;;;;;;;;;;;;16.13;62.82;100884.38;5073696;28;19927;-61
2022/10/31 00:04:43;;;;;;;;;;;;;;;16.13;62.97;100879.94;5073789;28;20378;-62
2022/10/31 00:07:08;;;;;;;;;;;;;;;16.15;62.91;100883.38;5074165;28;19920;-62
2022/10/31 00:09:33;;;;;;;;;;;;;;;16.16;63.15;100886.94;5073767;28;19924;-61
2022/10/31 00:11:59;;;;;;;;;;;;;;;16.14;63.14;100871.06;5073552;28;19920;-60
2022/10/31 00:14:24;;;;;;;;;;;;;;;16.13;63.34;100877.28;5073873;28;19921;-62
2022/10/31 00:16:49;;;;;;;;;;;;;;;16.07;63.27;100885.44;5073453;28;19921;-62
2022/10/31 00:19:14;;;;;;;;;;;;;;;16.08;63.39;100886.31;5073411;28;19917;-60
2022/10/31 00:21:40;;;;;;;;;;;;;;;16.10;63.40;100888.00;5072400;28;19916;-60
2022/10/31 00:24:05;;;;;;;;;;;;;;;16.09;63.18;100893.38;5073277;28;19931;-61
2022/10/31 00:26:31;;;;;;;;;;;;;;;16.09;63.45;100893.38;5073656;28;19955;-60
2022/10/31 00:28:57;;;;;;;;;;;;;;;16.12;63.31;100888.81;5073465;28;19999;-62
2022/10/31 00:31:22;;;;;;;;;;;;;;;16.10;63.35;100885.34;5073299;28;19921;-61
2022/10/31 00:33:47;;;;;;;;;;;;;;;16.14;63.56;100886.09;5073575;28;20458;-60
2022/10/31 00:36:14;;;;;;;;;;;;;;;16.08;63.76;100895.16;5072425;28;20269;-60
2022/10/31 00:38:39;;;;;;;;;;;;;;;16.14;64.05;100892.25;5073425;28;19923;-60
2022/10/31 00:41:05;;;;;;;;;;;;;;;16.13;63.92;100890.53;5073241;28;19916;-60
2022/10/31 00:43:30;;;;;;;;;;;;;;;16.14;63.71;100892.25;5073485;28;19920;-61
2022/10/31 00:45:55;;;;;;;;;;;;;;;16.17;64.14;100893.94;5073314;28;20023;-61
2022/10/31 00:48:20;;;;;;;;;;;;;;;16.19;63.93;100894.75;5072819;28;20422;-60
2022/10/31 00:50:46;;;;;;;;;;;;;;;16.17;64.28;100897.47;5073415;28;20372;-60
2022/10/31 00:53:11;;;;;;;;;;;;;;;16.25;63.81;100889.22;5072929;28;19928;-60
2022/10/31 00:55:36;;;;;;;;;;;;;;;16.24;63.94;100893.66;5072463;28;20023;-60
2022/10/31 00:58:02;;;;;;;;;;;;;;;16.23;63.95;100891.06;5075439;28;19920;-61
2022/10/31 01:00:27;;;;;;;;;;;;;;;16.22;63.97;100890.19;5076423;28;19921;-60
2022/10/31 01:02:52;;;;;;;;;;;;;;;16.24;63.95;100890.16;5079039;28;20345;-59
2022/10/31 01:05:18;;;;;;;;;;;;;;;16.26;64.12;100893.59;5076888;28;20338;-60
2022/10/31 01:07:43;;;;;;;;;;;;;;;16.18;64.41;100882.41;5075949;28;19921;-60
2022/10/31 01:10:09;;;;;;;;;;;;;;;16.22;64.77;100884.88;5076757;28;19920;-61
2022/10/31 01:12:38;;;;;;;;;;;;;;;16.20;64.72;100891.19;5077196;28;19943;-62
2022/10/31 01:15:03;;;;;;;;;;;;;;;16.20;64.90;100885.88;5076479;28;19924;-60
2022/10/31 01:17:29;;;;;;;;;;;;;;;16.14;64.91;100894.91;5076239;28;19916;-61
2022/10/31 01:19:54;;;;;;;;;;;;;;;16.14;65.17;100902.00;5076525;28;19927;-60
2022/10/31 01:22:20;;;;;;;;;;;;;;;16.14;65.13;100896.69;5076209;28;19921;-62
2022/10/31 01:24:45;;;;;;;;;;;;;;;16.20;65.11;100892.06;5076285;28;19924;-62
2022/10/31 01:27:10;;;;;;;;;;;;;;;16.26;65.15;100893.59;5076244;28;19925;-61
2022/10/31 01:29:35;;;;;;;;;;;;;;;16.32;64.95;100892.50;5075985;28;19925;-60
2022/10/31 01:32:01;;;;;;;;;;;;;;;16.31;64.82;100898.72;5075866;28;20003;-60
2022/10/31 01:34:26;;;;;;;;;;;;;;;16.28;65.23;100894.44;5058281;28;20388;-60
2022/10/31 01:36:51;;;;;;;;;;;;;;;16.20;65.62;100894.69;5076539;28;19956;-60
2022/10/31 01:39:17;;;;;;;;;;;;;;;16.22;65.67;100890.19;5076166;28;20018;-60
2022/10/31 01:41:44;;;;;;;;;;;;;;;16.27;65.70;100893.53;5076015;28;19920;-60
2022/10/31 01:44:13;;;;;;;;;;;;;;;16.26;65.58;100898.91;5075918;28;19916;-60
2022/10/31 01:46:58;;;;;;;;;;;;;;;16.30;65.58;100886.41;5076066;28;20367;-60
2022/10/31 01:49:44;;;;;;;;;;;;;;;16.35;65.38;100898.56;5071181;28;19925;-60
2022/10/31 01:52:12;;;;;;;;;;;;;;;16.39;65.55;100894.84;5071461;28;19916;-60
2022/10/31 01:54:40;;;;;;;;;;;;;;;16.41;65.50;100901.00;5075705;28;20006;-60
2022/10/31 01:57:06;;;;;;;;;;;;;;;16.43;65.50;100904.44;5075533;28;19967;-60
2022/10/31 01:59:33;;;;;;;;;;;;;;;16.41;65.66;100901.00;5075838;28;19920;-60
2022/10/31 02:01:59;;;;;;;;;;;;;;;16.44;65.44;100905.31;5075538;28;19916;-61
2022/10/31 02:04:25;;;;;;;;;;;;;;;16.47;65.60;100906.03;5074162;28;20299;-61
2022/10/31 02:07:00;;;;;;;;;;;;;;;16.51;65.49;100906.78;5074561;28;20047;-62
2022/10/31 02:09:26;;;;;;;;;;;;;;;16.41;65.98;100905.44;5057486;28;19916;-62
2022/10/31 02:11:54;;;;;;;;;;;;;;;16.51;65.84;100910.31;5075614;28;20430;-62
2022/10/31 02:14:22;;;;;;;;;;;;;;;16.51;66.24;100907.66;5075685;28;19916;-62
2022/10/31 02:16:47;;;;;;;;;;;;;;;16.52;66.32;100905.91;5075360;28;19916;-62
2022/10/31 02:19:17;;;;;;;;;;;;;;;16.43;66.51;100908.88;5075204;28;19974;-62
2022/10/31 02:21:53;;;;;;;;;;;;;;;16.39;66.97;100908.13;5075212;28;19924;-62
2022/10/31 02:24:24;;;;;;;;;;;;;;;16.43;66.95;100915.03;5074847;28;19916;-62
2022/10/31 02:27:06;;;;;;;;;;;;;;;16.47;67.10;100916.66;5075044;28;20279;-62
2022/10/31 02:29:38;;;;;;;;;;;;;;;16.44;66.99;100914.16;5075182;28;20012;-62
2022/10/31 02:32:06;;;;;;;;;;;;;;;16.55;66.54;100910.19;5074942;28;19923;-62
2022/10/31 02:34:31;;;;;;;;;;;;;;;16.57;66.26;100911.88;5074776;28;20299;-62
2022/10/31 02:36:59;;;;;;;;;;;;;;;16.61;66.34;100912.63;5075015;28;19916;-62
2022/10/31 02:39:26;;;;;;;;;;;;;;;16.59;66.28;100917.97;5075233;28;19952;-62
2022/10/31 02:42:01;;;;;;;;;;;;;;;16.56;66.06;100914.59;5074869;28;19924;-62
2022/10/31 02:44:29;;;;;;;;;;;;;;;16.51;66.38;100920.06;5074859;28;20419;-62
2022/10/31 02:47:01;;;;;;;;;;;;;;;16.61;66.70;100920.59;5074811;28;19924;-62
2022/10/31 02:49:46;;;;;;;;;;;;;;;16.66;66.76;100919.47;5074377;28;19928;-62
2022/10/31 02:52:21;;;;;;;;;;;;;;;16.62;66.65;100924.97;5074645;28;19966;-61
2022/10/31 02:54:47;;;;;;;;;;;;;;;16.67;67.05;100923.00;5074893;28;19925;-61
2022/10/31 02:57:12;;;;;;;;;;;;;;;16.65;66.78;100920.41;5074516;28;19921;-61
2022/10/31 02:59:40;;;;;;;;;;;;;;;16.62;66.63;100924.97;5074388;28;19928;-62
2022/10/31 03:02:14;;;;;;;;;;;;;;;16.50;66.74;100929.81;5074528;28;19917;-61
2022/10/31 03:04:42;;;;;;;;;;;;;;;16.59;66.91;100925.09;5074452;28;19964;-62
2022/10/31 03:07:17;;;;;;;;;;;;;;;16.56;66.97;100926.09;5074345;28;19917;-62
2022/10/31 03:09:52;;;;;;;;;;;;;;;16.51;66.90;100923.56;5074261;28;19942;-62
2022/10/31 03:12:21;;;;;;;;;;;;;;;16.52;67.37;100929.78;5074358;28;19916;-61
2022/10/31 03:15:06;;;;;;;;;;;;;;;16.57;67.29;100933.09;5074448;28;19927;-62
2022/10/31 03:17:44;;;;;;;;;;;;;;;16.62;67.26;100930.28;5075115;28;20382;-62
2022/10/31 03:20:10;;;;;;;;;;;;;;;16.66;67.02;100934.53;5074924;28;20003;-62
2022/10/31 03:22:37;;;;;;;;;;;;;;;16.59;67.21;100935.69;5072934;28;19963;-61
2022/10/31 03:25:04;;;;;;;;;;;;;;;16.55;67.44;100936.72;5073985;28;19923;-62
2022/10/31 03:27:32;;;;;;;;;;;;;;;16.55;67.66;100937.59;5074266;28;19917;-61
2022/10/31 03:30:00;;;;;;;;;;;;;;;16.57;67.88;100937.56;5074510;28;19924;-61
2022/10/31 03:32:34;;;;;;;;;;;;;;;16.65;67.56;100941.63;5073983;28;19939;-61
2022/10/31 03:35:00;;;;;;;;;;;;;;;16.69;67.79;100945.91;5073764;28;19917;-61
2022/10/31 03:37:29;;;;;;;;;;;;;;;16.71;67.48;100945.84;5074060;28;19994;-61
2022/10/31 03:39:56;;;;;;;;;;;;;;;16.70;67.16;100942.31;5073877;28;20299;-61
2022/10/31 03:42:24;;;;;;;;;;;;;;;16.62;67.08;100935.59;5073998;28;19923;-62
2022/10/31 03:44:57;;;;;;;;;;;;;;;16.61;67.59;100939.16;5073898;28;20350;-61
2022/10/31 03:47:23;;;;;;;;;;;;;;;16.59;67.67;100935.69;5073361;28;19916;-60
2022/10/31 03:49:48;;;;;;;;;;;;;;;16.56;68.07;100927.88;5073912;28;20322;-61
2022/10/31 03:52:26;;;;;;;;;;;;;;;16.58;67.80;100931.31;5074009;28;20395;-60
2022/10/31 03:54:54;;;;;;;;;;;;;;;16.51;67.86;100936.84;5073929;28;19970;-60
2022/10/31 03:57:39;;;;;;;;;;;;;;;16.49;68.38;100936.03;5074142;28;19917;-60
2022/10/31 04:00:12;;;;;;;;;;;;;;;16.53;68.19;100925.31;5073701;28;19920;-62
2022/10/31 04:02:39;;;;;;;;;;;;;;;16.57;68.33;100933.09;5073754;28;19920;-60
2022/10/31 04:05:05;;;;;;;;;;;;;;;16.56;68.36;100931.38;5073796;28;19923;-61
2022/10/31 04:07:34;;;;;;;;;;;;;;;16.56;68.44;100933.19;5074041;28;19952;-61
2022/10/31 04:10:02;;;;;;;;;;;;;;;16.51;69.00;100936.84;5073564;28;19917;-61
2022/10/31 04:12:29;;;;;;;;;;;;;;;16.51;69.13;100928.88;5073584;28;19917;-61
2022/10/31 04:14:55;;;;;;;;;;;;;;;16.46;69.10;100930.84;5073708;28;20015;-60
2022/10/31 04:17:23;;;;;;;;;;;;;;;16.50;68.96;100926.28;5073648;28;19923;-61
2022/10/31 04:19:48;;;;;;;;;;;;;;;16.49;68.94;100925.44;5072409;28;20011;-62
2022/10/31 04:22:13;;;;;;;;;;;;;;;16.54;68.59;100933.22;5073366;28;20003;-61
2022/10/31 04:24:39;;;;;;;;;;;;;;;16.54;68.67;100927.03;5073328;28;19974;-61
2022/10/31 04:27:05;;;;;;;;;;;;;;;16.54;68.79;100927.03;5073410;28;19960;-60
2022/10/31 04:29:30;;;;;;;;;;;;;;;16.54;68.98;100921.75;5073637;28;20399;-62
2022/10/31 04:31:55;;;;;;;;;;;;;;;16.59;68.90;100923.28;5076445;28;20288;-61
2022/10/31 04:34:21;;;;;;;;;;;;;;;16.58;68.89;100915.41;5077566;28;19920;-60
2022/10/31 04:36:46;;;;;;;;;;;;;;;16.59;68.75;100922.44;5076027;28;19967;-60
2022/10/31 04:39:11;;;;;;;;;;;;;;;16.54;68.91;100916.44;5077089;28;20367;-61
2022/10/31 04:41:36;;;;;;;;;;;;;;;16.61;68.42;100913.50;5077020;28;19957;-63
2022/10/31 04:44:02;;;;;;;;;;;;;;;16.59;68.59;100917.13;5077248;28;19943;-61
2022/10/31 04:46:27;;;;;;;;;;;;;;;16.65;68.25;100915.09;5077211;28;19917;-61
2022/10/31 04:48:52;;;;;;;;;;;;;;;16.71;68.14;100916.66;5076796;28;19924;-61
2022/10/31 04:51:18;;;;;;;;;;;;;;;16.72;68.10;100919.25;5076783;28;20381;-61
2022/10/31 04:53:43;;;;;;;;;;;;;;;16.72;68.18;100915.75;5077214;28;19927;-60
2022/10/31 04:56:08;;;;;;;;;;;;;;;16.73;68.02;100912.19;5076812;28;19966;-61
2022/10/31 04:58:33;;;;;;;;;;;;;;;16.71;68.20;100916.66;5077045;28;19920;-61
2022/10/31 05:00:59;;;;;;;;;;;;;;;16.68;68.00;100922.09;5076911;28;19927;-61
2022/10/31 05:03:24;;;;;;;;;;;;;;;16.66;68.18;100916.84;5075743;28;19970;-61
2022/10/31 05:05:49;;;;;;;;;;;;;;;16.65;68.09;100924.88;5076614;28;20364;-61
2022/10/31 05:08:15;;;;;;;;;;;;;;;16.55;68.03;100929.63;5076643;28;19925;-60
2022/10/31 05:10:40;;;;;;;;;;;;;;;16.47;68.18;100927.25;5076483;28;19943;-61
2022/10/31 05:13:05;;;;;;;;;;;;;;;16.56;68.04;100922.56;5076640;28;19931;-61
2022/10/31 05:15:31;;;;;;;;;;;;;;;16.47;67.94;100921.97;5074243;28;20009;-61
2022/10/31 05:17:56;;;;;;;;;;;;;;;16.46;67.59;100920.25;5075278;28;19924;-61
2022/10/31 05:20:23;;;;;;;;;;;;;;;16.46;67.72;100928.19;5075790;28;19990;-62
2022/10/31 05:22:49;;;;;;;;;;;;;;;16.43;67.54;100928.31;5076412;28;19917;-60
2022/10/31 05:25:15;;;;;;;;;;;;;;;16.32;67.70;100929.63;5075668;28;19920;-60
2022/10/31 05:27:41;;;;;;;;;;;;;;;16.31;67.68;100926.09;5076443;28;20392;-61
2022/10/31 05:30:07;;;;;;;;;;;;;;;16.19;68.04;100937.16;5074137;28;19967;-60
2022/10/31 05:32:42;;;;;;;;;;;;;;;16.28;68.05;100936.84;5073809;28;19964;-60
2022/10/31 05:35:09;;;;;;;;;;;;;;;16.35;67.66;100942.78;5076582;28;20376;-61
2022/10/31 05:37:35;;;;;;;;;;;;;;;16.38;67.52;100942.66;5077596;28;19920;-60
2022/10/31 05:40:01;;;;;;;;;;;;;;;16.41;67.19;100945.22;5076456;28;19927;-60
2022/10/31 05:42:26;;;;;;;;;;;;;;;16.42;67.04;100937.19;5075131;28;20015;-60
2022/10/31 05:44:51;;;;;;;;;;;;;;;16.46;67.21;100936.16;5076423;28;20356;-59
2022/10/31 05:47:17;;;;;;;;;;;;;;;16.46;66.85;100940.59;5075236;28;20023;-60
2022/10/31 05:49:42;;;;;;;;;;;;;;;16.46;66.79;100940.59;5074553;28;19932;-60
2022/10/31 05:52:07;;;;;;;;;;;;;;;16.40;66.83;100947.00;5076009;28;19927;-61
2022/10/31 05:54:32;;;;;;;;;;;;;;;16.29;67.20;100946.53;5075496;28;19975;-61
2022/10/31 05:56:58;;;;;;;;;;;;;;;16.31;67.37;100959.72;5074076;28;19985;-59
2022/10/31 05:59:23;;;;;;;;;;;;;;;16.23;67.38;100960.84;5075659;28;19921;-59
2022/10/31 06:01:48;;;;;;;;;;;;;;;16.22;67.36;100953.81;5074319;28;20062;-60
2022/10/31 06:04:13;;;;;;;;;;;;;;;16.41;67.12;100959.34;5075061;28;19931;-60
2022/10/31 06:06:39;;;;;;;;;;;;;;;16.40;67.02;100952.31;5075495;28;19928;-60
2022/10/31 06:09:04;;;;;;;;;;;;;;;16.38;67.05;100958.56;5073779;28;20682;-60
2022/10/31 06:11:29;;;;;;;;;;;;;;;16.44;66.89;100959.22;5075720;28;19924;-60
2022/10/31 06:13:54;;;;;;;;;;;;;;;16.44;66.79;100959.22;5074475;28;19970;-60
2022/10/31 06:16:20;;;;;;;;;;;;;;;16.51;66.54;100965.16;5076350;28;19925;-60
2022/10/31 06:18:45;;;;;;;;;;;;;;;16.55;66.48;100969.41;5074369;28;19991;-61
2022/10/31 06:21:11;;;;;;;;;;;;;;;16.58;66.37;100971.09;5073250;28;19990;-61
2022/10/31 06:23:36;;;;;;;;;;;;;;;16.53;66.50;100970.41;5074876;28;20346;-61
2022/10/31 06:26:01;;;;;;;;;;;;;;;16.56;66.46;100963.22;5072854;28;19925;-59
2022/10/31 06:28:27;;;;;;;;;;;;;;;16.56;66.45;100963.22;5074510;28;19935;-60
2022/10/31 06:30:52;;;;;;;;;;;;;;;16.57;66.58;100964.09;5074517;28;19925;-62
2022/10/31 06:33:17;;;;;;;;;;;;;;;16.64;66.45;100960.28;5075123;28;20380;-60
2022/10/31 06:35:46;;;;;;;;;;;;;;;16.69;66.02;100967.13;5071537;28;19920;-61
2022/10/31 06:38:12;;;;;;;;;;;;;;;16.71;65.92;100972.38;5072252;28;19927;-61
2022/10/31 06:40:37;;;;;;;;;;;;;;;16.72;65.94;100969.69;5084579;28;19924;-61
2022/10/31 06:43:02;;;;;;;;;;;;;;;16.72;65.71;100968.81;5074414;28;19921;-61
2022/10/31 06:45:28;;;;;;;;;;;;;;;16.77;65.55;100972.19;5072991;28;20451;-62
2022/10/31 06:47:54;;;;;;;;;;;;;;;16.77;65.86;100966.88;5074847;28;19928;-61
2022/10/31 06:50:19;;;;;;;;;;;;;;;16.85;65.80;100971.91;5073694;28;19916;-60
2022/10/31 06:52:55;;;;;;;;;;;;;;;16.87;65.07;100978.84;5073976;28;19978;-59
2022/10/31 06:55:22;;;;;;;;;;;;;;;16.90;65.14;100975.22;5074121;28;19916;-61
2022/10/31 06:57:50;;;;;;;;;;;;;;;16.92;65.40;100976.91;5074708;28;19920;-61
2022/10/31 07:00:16;;;;;;;;;;;;;;;16.93;64.81;100975.97;5074428;28;19923;-59
2022/10/31 07:02:41;;;;;;;;;;;;;;;16.94;64.98;100979.50;5074463;28;19916;-59
2022/10/31 07:05:07;;;;;;;;;;;;;;;16.89;65.36;100974.38;5074265;28;20379;-61
2022/10/31 07:07:32;;;;;;;;;;;;;;;16.97;65.14;100980.25;5074343;28;19967;-61
2022/10/31 07:09:57;;;;;;;;;;;;;;;16.98;65.25;100981.97;5056487;28;20016;-61
2022/10/31 07:12:22;;;;;;;;;;;;;;;17.06;64.94;100991.44;5073771;28;19954;-61
2022/10/31 07:14:48;;;;;;;;;;;;;;;17.04;64.91;100985.34;5073970;28;20414;-61
2022/10/31 07:17:13;;;;;;;;;;;;;;;17.23;64.75;100997.81;5074013;28;19921;-61
2022/10/31 07:19:38;;;;;;;;;;;;;;;17.38;64.20;101001.66;5074230;28;19925;-62
2022/10/31 07:22:04;;;;;;;;;;;;;;;17.44;63.98;101001.41;5074007;28;20349;-62
2022/10/31 07:24:30;;;;;;;;;;;;;;;17.50;64.04;101002.94;5074020;28;20460;-62
2022/10/31 07:26:55;;;;;;;;;;;;;;;17.48;63.94;101003.03;5074077;28;19978;-61
2022/10/31 07:29:20;;;;;;;;;;;;;;;17.54;63.93;100998.38;5072261;28;19924;-61
2022/10/31 07:31:46;;;;;;;;;;;;;;;17.55;63.93;101002.75;5076119;28;19924;-61
2022/10/31 07:34:11;;;;;;;;;;;;;;;17.39;64.26;101007.81;5071328;28;19932;-62
2022/10/31 07:36:37;;;;;;;;;;;;;;;17.42;64.39;101018.31;5087199;28;19932;-61
2022/10/31 07:39:02;;;;;;;;;;;;;;;17.45;64.44;101020.88;5074072;28;20014;-61
2022/10/31 07:41:27;;;;;;;;;;;;;;;17.47;64.59;101022.56;5072531;28;19921;-60
2022/10/31 07:43:52;;;;;;;;;;;;;;;17.46;64.17;101018.13;5077304;28;19924;-61
2022/10/31 07:46:18;;;;;;;;;;;;;;;17.48;64.48;101024.28;5073939;28;19974;-61
2022/10/31 07:48:43;;;;;;;;;;;;;;;17.70;63.84;101020.72;5070900;28;19928;-61
2022/10/31 07:51:09;;;;;;;;;;;;;;;17.63;63.96;101012.13;5074764;28;21459;-62
2022/10/31 07:53:34;;;;;;;;;;;;;;;17.60;64.05;101011.44;5077912;28;19928;-61
2022/10/31 07:55:59;;;;;;;;;;;;;;;17.59;64.32;101007.88;5073158;28;19924;-61
2022/10/31 07:58:25;;;;;;;;;;;;;;;17.49;64.79;101009.19;5075322;28;19932;-61
2022/10/31 08:00:50;;;;;;;;;;;;;;;17.56;65.01;101010.69;5085151;28;20280;-61
2022/10/31 08:03:17;;;;;;;;;;;;;;;17.69;64.42;101005.72;5076486;28;20296;-61
2022/10/31 08:05:44;;;;;;;;;;;;;;;17.75;64.57;101009.94;5076920;28;19920;-61
2022/10/31 08:08:10;;;;;;;;;;;;;;;17.80;64.32;101019.47;5080925;28;19949;-62
2022/10/31 08:10:35;;;;;;;;;;;;;;;17.84;64.05;101020.22;5077345;28;20015;-62
2022/10/31 08:13:05;;;;;;;;;;;;;;;17.85;64.42;101017.47;5079676;28;19925;-61
2022/10/31 08:15:31;;;;;;;;;;;;;;;17.97;64.12;101016.09;5077863;28;20384;-61
2022/10/31 08:17:56;;;;;;;;;;;;;;;17.97;64.10;101021.41;5077284;28;19926;-61
2022/10/31 08:20:22;;;;;;;;;;;;;;;17.97;64.24;101016.97;5076572;28;19924;-61
2022/10/31 08:22:57;;;;;;;;;;;;;;;17.97;64.39;101016.97;5076719;28;20346;-62
2022/10/31 08:25:23;;;;;;;;;;;;;;;17.81;64.77;101021.19;5078582;28;20041;-62
2022/10/31 08:27:52;;;;;;;;;;;;;;;18.01;64.58;101019.50;5076476;28;20011;-61
2022/10/31 08:30:17;;;;;;;;;;;;;;;18.04;64.29;101003.44;5078202;28;19924;-65
2022/10/31 08:32:43;;;;;;;;;;;;;;;18.06;64.28;101009.53;5073149;28;19947;-61
2022/10/31 08:35:08;;;;;;;;;;;;;;;18.12;64.30;101010.13;5076241;28;20402;-62
2022/10/31 08:37:33;;;;;;;;;;;;;;;18.15;64.46;101006.47;5091193;28;20391;-62
2022/10/31 08:39:59;;;;;;;;;;;;;;;18.20;64.32;101007.16;5078618;28;19927;-62
2022/10/31 08:42:24;;;;;;;;;;;;;;;18.18;64.08;101019.63;5080775;28;19921;-61
2022/10/31 08:44:49;;;;;;;;;;;;;;;18.21;64.12;101019.50;5076898;28;19926;-62
2022/10/31 08:47:15;;;;;;;;;;;;;;;18.25;64.11;101015.78;5091182;28;19920;-62
2022/10/31 08:49:40;;;;;;;;;;;;;;;18.28;63.83;101013.00;5076345;28;20256;-61
2022/10/31 08:52:05;;;;;;;;;;;;;;;18.16;64.25;101017.06;5076913;28;20007;-62
2022/10/31 08:54:31;;;;;;;;;;;;;;;18.26;64.11;101022.81;5075940;28;19947;-63
2022/10/31 08:56:56;;;;;;;;;;;;;;;18.26;64.02;101025.47;5077289;28;19931;-61
2022/10/31 08:59:21;;;;;;;;;;;;;;;18.31;63.76;101018.19;5068774;28;20018;-62
2022/10/31 09:01:47;;;;;;;;;;;;;;;18.33;64.16;101018.97;5074468;28;19935;-62
2022/10/31 09:04:12;;;;;;;;;;;;;;;18.38;64.13;101032.94;5076932;28;20272;-62
2022/10/31 09:06:37;;;;;;;;;;;;;;;18.44;63.92;101029.16;5084942;28;19939;-62
2022/10/31 09:09:03;;;;;;;;;;;;;;;18.50;63.83;101028.88;5078783;28;19920;-61
2022/10/31 09:11:29;;;;;;;;;;;;;;;18.53;63.86;101038.53;5076599;28;19920;-62
2022/10/31 09:13:55;;;;;;;;;;;;;;;18.50;63.55;101030.66;5076583;28;19931;-62
2022/10/31 09:16:20;;;;;;;;;;;;;;;18.42;63.89;101023.88;5075676;28;19921;-62
2022/10/31 09:18:45;;;;;;;;;;;;;;;18.52;63.97;101028.81;5073886;28;19925;-62
2022/10/31 09:21:10;;;;;;;;;;;;;;;18.56;63.80;101022.44;5076507;28;19993;-63
2022/10/31 09:23:36;;;;;;;;;;;;;;;18.61;63.76;101025.72;5076296;28;19927;-62
2022/10/31 09:26:02;;;;;;;;;;;;;;;18.63;63.83;101021.19;5076396;28;19921;-62
2022/10/31 09:28:27;;;;;;;;;;;;;;;18.66;63.98;101023.72;5073578;28;20431;-62
2022/10/31 09:30:53;;;;;;;;;;;;;;;18.68;64.10;101028.06;5062776;28;19921;-63
2022/10/31 09:33:18;;;;;;;;;;;;;;;19.22;62.68;101022.94;5075108;28;19921;-62
2022/10/31 09:35:44;;;;;;;;;;;;;;;19.41;61.88;101026.44;5075101;28;19920;-63
2022/10/31 09:38:10;;;;;;;;;;;;;;;19.43;61.70;101023.72;5075186;28;19916;-64
2022/10/31 09:40:46;;;;;;;;;;;;;;;19.35;61.66;101024.09;5075241;28;19921;-63
2022/10/31 09:43:17;;;;;;;;;;;;;;;19.51;61.37;101036.66;5073112;28;19942;-63
2022/10/31 09:45:54;;;;;;;;;;;;;;;19.12;62.36;101040.31;5076195;28;19962;-63
2022/10/31 09:48:31;;;;;;;;;;;;;;;19.04;62.66;101039.78;5075660;28;19959;-63
2022/10/31 09:51:03;;;;;;;;;;;;;;;19.49;61.58;101035.88;5076225;28;20371;-63
2022/10/31 09:53:35;;;;;;;;;;;;;;;19.51;61.39;101042.00;5076095;28;19917;-63
2022/10/31 09:56:01;;;;;;;;;;;;;;;19.56;61.46;101040.00;5075885;28;19916;-64
2022/10/31 09:58:28;;;;;;;;;;;;;;;19.13;62.46;101039.34;5075809;28;19925;-62
2022/10/31 10:00:55;;;;;;;;;;;;;;;19.03;62.60;101036.28;5075697;28;19960;-62
2022/10/31 10:03:31;;;;;;;;;;;;;;;19.00;63.06;101035.53;5075774;28;19962;-63
2022/10/31 10:06:18;;;;;;;;;;;;;;;19.02;63.02;101034.53;5074199;28;19995;-63
2022/10/31 10:08:44;;;;;;;;;;;;;;;19.04;62.89;101031.81;5076894;28;19970;-64
2022/10/31 10:11:30;;;;;;;;;;;;;;;19.11;62.83;101027.91;5095729;28;19924;-62
2022/10/31 10:13:58;;;;;;;;;;;;;;;19.19;62.61;101033.75;5096101;28;19959;-63
2022/10/31 10:16:33;;;;;;;;;;;;;;;19.20;62.54;101038.13;5095720;28;19924;-62
2022/10/31 10:19:17;;;;;;;;;;;;;;;19.22;62.42;101030.94;5077561;28;19920;-62
2022/10/31 10:21:51;;;;;;;;;;;;;;;19.21;62.36;101031.88;5067320;28;19921;-62
2022/10/31 10:24:25;;;;;;;;;;;;;;;19.20;62.34;101022.16;5073267;28;20384;-63
2022/10/31 10:27:15;;;;;;;;;;;;;;;18.85;63.15;101026.47;5074863;28;20391;-63
2022/10/31 10:29:52;;;;;;;;;;;;;;;18.78;63.75;101025.84;5074233;28;19916;-62
2022/10/31 10:32:23;;;;;;;;;;;;;;;18.87;63.34;101017.47;5075091;28;19921;-63
2022/10/31 10:34:54;;;;;;;;;;;;;;;18.89;63.59;101020.91;5075123;28;19974;-63
2022/10/31 10:37:34;;;;;;;;;;;;;;;19.08;62.98;101026.25;5074963;28;19962;-63
2022/10/31 10:40:19;;;;;;;;;;;;;;;18.90;63.30;101022.63;5074578;28;19923;-62
2022/10/31 10:43:18;;;;;;;;;;;;;;;19.12;62.85;101014.53;5074819;28;20368;-62
2022/10/31 10:48:29;;;;;;;;;;;;;;;19.17;61.67;101014.31;5074845;28;19934;-62
2022/10/31 10:50:55;;;;;;;;;;;;;;;19.19;61.65;101017.78;5074422;28;19916;-63
2022/10/31 10:53:32;;;;;;;;;;;;;;;19.16;62.05;101020.56;5073722;28;19935;-62
2022/10/31 10:55:57;;;;;;;;;;;;;;;19.28;61.98;101025.31;5073485;28;19921;-63
2022/10/31 10:58:22;;;;;;;;;;;;;;;19.34;61.72;101025.00;5073861;28;20015;-62
2022/10/31 11:00:49;;;;;;;;;;;;;;;19.37;61.54;101021.34;5073743;28;20330;-63
2022/10/31 11:03:15;;;;;;;;;;;;;;;19.18;62.29;101026.69;5071835;28;20007;-63
2022/10/31 11:05:51;;;;;;;;;;;;;;;19.22;61.85;101030.94;5075770;28;19952;-62
2022/10/31 11:08:28;;;;;;;;;;;;;;;19.72;60.92;101019.66;5074534;28;19939;-62
2022/10/31 11:11:12;;;;;;;;;;;;;;;19.66;60.71;101025.28;5074268;28;19920;-63
2022/10/31 11:13:40;;;;;;;;;;;;;;;19.52;61.04;101022.41;5074301;28;19944;-62
2022/10/31 11:16:27;;;;;;;;;;;;;;;19.50;60.76;101021.59;5074669;28;19917;-62
2022/10/31 11:18:53;;;;;;;;;;;;;;;19.11;61.85;101017.25;5074279;28;20007;-62
2022/10/31 11:21:27;;;;;;;;;;;;;;;19.00;62.14;101022.22;5072260;28;20022;-63
2022/10/31 11:24:21;;;;;;;;;;;;;;;18.86;62.62;101025.50;5074006;28;20376;-62
2022/10/31 11:26:48;;;;;;;;;;;;;;;18.84;63.07;101027.41;5068939;28;19921;-62
2022/10/31 11:29:15;;;;;;;;;;;;;;;18.49;63.49;101029.81;5073938;28;19916;-62
2022/10/31 11:31:40;;;;;;;;;;;;;;;18.77;63.10;101026.81;5074242;28;20331;-62
2022/10/31 11:34:19;;;;;;;;;;;;;;;18.70;63.17;101028.00;5073958;28;19917;-63
2022/10/31 11:36:44;;;;;;;;;;;;;;;18.56;63.31;101031.28;5073264;28;19923;-62
2022/10/31 11:39:16;;;;;;;;;;;;;;;18.64;63.40;101029.13;5073745;28;19920;-62
2022/10/31 11:41:42;;;;;;;;;;;;;;;18.52;64.14;101036.81;5073848;28;19916;-62
2022/10/31 11:44:16;;;;;;;;;;;;;;;18.28;64.39;101036.94;5079301;28;19931;-63
2022/10/31 11:46:47;;;;;;;;;;;;;;;18.29;64.45;101028.00;5093207;28;19923;-62
2022/10/31 11:49:31;;;;;;;;;;;;;;;18.41;64.03;101022.16;5093102;28;19930;-62
2022/10/31 11:52:00;;;;;;;;;;;;;;;18.43;63.79;101030.94;5093287;28;20126;-62
2022/10/31 11:54:28;;;;;;;;;;;;;;;18.33;64.29;101023.44;5076252;28;19917;-63
2022/10/31 11:56:54;;;;;;;;;;;;;;;18.24;64.57;101029.16;5058972;28;20391;-63
2022/10/31 11:59:30;;;;;;;;;;;;;;;17.97;65.16;101027.59;5054291;28;20007;-64
2022/10/31 12:01:56;;;;;;;;;;;;;;;18.02;65.00;101034.50;5053654;28;19924;-63
2022/10/31 12:04:27;;;;;;;;;;;;;;;18.06;65.19;101036.13;5053683;28;19924;-62
2022/10/31 12:06:53;;;;;;;;;;;;;;;18.02;64.83;101029.19;5053726;28;19940;-61
2022/10/31 12:09:23;;;;;;;;;;;;;;;17.86;65.20;101032.50;5053542;28;20296;-61
2022/10/31 12:12:11;;;;;;;;;;;;;;;17.93;65.49;101033.13;5086087;28;19916;-62
2022/10/31 12:14:57;;;;;;;;;;;;;;;18.01;65.08;101028.34;5053710;28;20308;-62
2022/10/31 12:17:26;;;;;;;;;;;;;;;18.19;64.57;101024.00;5053301;28;20003;-62
2022/10/31 12:20:10;;;;;;;;;;;;;;;18.17;64.69;101028.56;5053485;28;19923;-63
2022/10/31 12:22:36;;;;;;;;;;;;;;;18.19;64.61;101022.25;5053483;28;20279;-63
2022/10/31 12:25:12;;;;;;;;;;;;;;;18.21;64.66;101028.34;5053652;28;20019;-63
2022/10/31 12:27:49;;;;;;;;;;;;;;;18.12;64.65;101026.09;5053548;28;20441;-62
2022/10/31 12:30:17;;;;;;;;;;;;;;;17.95;65.47;101028.56;5054155;28;20288;-62
2022/10/31 12:32:58;;;;;;;;;;;;;;;17.98;65.63;101021.34;5054173;28;20379;-62
2022/10/31 12:35:46;;;;;;;;;;;;;;;17.87;65.80;101020.94;5053530;28;20019;-63
2022/10/31 12:38:25;;;;;;;;;;;;;;;17.72;66.14;101016.25;5047720;28;20360;-63
2022/10/31 12:41:00;;;;;;;;;;;;;;;17.91;65.79;101013.69;5053675;28;20007;-63
2022/10/31 12:43:36;;;;;;;;;;;;;;;17.98;65.41;101000.06;5053603;28;19917;-63
2022/10/31 12:46:02;;;;;;;;;;;;;;;18.01;65.43;101012.38;5053399;28;19920;-63